sensor_id;sensor_type;location;lat;lon;timestamp;pressure;altitude;pressure_sealevel;temperature;humidity
37710;BME280;60223;34.854;-92.408;2023-04-09T00:02:12;101002.12;;;19.72;29.29
37710;BME280;60223;34.854;-92.408;2023-04-09T00:04:36;101000.02;;;21.26;27.66
37710;BME280;60223;34.854;-92.408;2023-04-09T00:07:04;101000.48;;;20.92;28.66
37710;BME280;60223;34.854;-92.408;2023-04-09T00:09:29;101005.20;;;22.01;27.64
37710;BME280;60223;34.854;-92.408;2023-04-09T00:11:55;101005.95;;;22.29;27.40
37710;BME280;60223;34.854;-92.408;2023-04-09T00:14:19;101008.26;;;21.64;28.11
37710;BME280;60223;34.854;-92.408;2023-04-09T00:16:47;101007.82;;;21.14;28.64
37710;BME280;60223;34.854;-92.408;2023-04-09T00:19:12;101016.14;;;21.13;28.52
37710;BME280;60223;34.854;-92.408;2023-04-09T00:21:38;101022.10;;;22.34;27.55
37710;BME280;60223;34.854;-92.408;2023-04-09T00:24:03;101024.44;;;21.30;28.69
37710;BME280;60223;34.854;-92.408;2023-04-09T00:26:30;101026.69;;;21.86;28.17
37710;BME280;60223;34.854;-92.408;2023-04-09T00:28:56;101030.74;;;21.35;28.54
37710;BME280;60223;34.854;-92.408;2023-04-09T00:31:21;101035.19;;;21.98;28.14
37710;BME280;60223;34.854;-92.408;2023-04-09T00:33:46;101039.41;;;21.83;28.07
37710;BME280;60223;34.854;-92.408;2023-04-09T00:36:13;101043.26;;;22.39;27.60
37710;BME280;60223;34.854;-92.408;2023-04-09T00:38:38;101043.80;;;22.24;27.96
37710;BME280;60223;34.854;-92.408;2023-04-09T00:41:04;101042.44;;;21.42;28.40
37710;BME280;60223;34.854;-92.408;2023-04-09T00:43:28;101045.16;;;21.36;28.40
37710;BME280;60223;34.854;-92.408;2023-04-09T00:45:55;101046.19;;;21.81;28.28
37710;BME280;60223;34.854;-92.408;2023-04-09T00:48:21;101047.28;;;21.91;28.55
37710;BME280;60223;34.854;-92.408;2023-04-09T00:50:47;101049.25;;;21.51;28.94
37710;BME280;60223;34.854;-92.408;2023-04-09T00:53:13;101045.53;;;21.66;28.80
37710;BME280;60223;34.854;-92.408;2023-04-09T00:55:39;101050.67;;;21.89;28.35
37710;BME280;60223;34.854;-92.408;2023-04-09T00:58:04;101052.42;;;22.87;27.54
37710;BME280;60223;34.854;-92.408;2023-04-09T01:00:30;101055.19;;;21.46;28.56
37710;BME280;60223;34.854;-92.408;2023-04-09T01:02:54;101050.95;;;21.42;28.95
37710;BME280;60223;34.854;-92.408;2023-04-09T01:05:22;101055.12;;;22.00;28.67
37710;BME280;60223;34.854;-92.408;2023-04-09T01:07:57;101055.77;;;21.57;28.84
37710;BME280;60223;34.854;-92.408;2023-04-09T01:10:20;101057.39;;;21.32;28.82
37710;BME280;60223;34.854;-92.408;2023-04-09T01:12:41;101059.86;;;21.44;29.15
37710;BME280;60223;34.854;-92.408;2023-04-09T01:15:08;101060.99;;;21.98;28.48
37710;BME280;60223;34.854;-92.408;2023-04-09T01:17:34;101061.67;;;21.96;28.51
37710;BME280;60223;34.854;-92.408;2023-04-09T01:20:02;101061.12;;;21.22;29.00
37710;BME280;60223;34.854;-92.408;2023-04-09T01:22:30;101064.16;;;21.22;29.04
37710;BME280;60223;34.854;-92.408;2023-04-09T01:24:56;101071.66;;;21.84;28.64
37710;BME280;60223;34.854;-92.408;2023-04-09T01:27:13;101072.95;;;21.22;29.52
37710;BME280;60223;34.854;-92.408;2023-04-09T01:29:44;101076.77;;;22.17;28.11
37710;BME280;60223;34.854;-92.408;2023-04-09T01:32:06;101075.90;;;22.89;27.48
37710;BME280;60223;34.854;-92.408;2023-04-09T01:34:30;101082.75;;;21.78;28.58
37710;BME280;60223;34.854;-92.408;2023-04-09T01:36:58;101082.24;;;21.12;29.79
37710;BME280;60223;34.854;-92.408;2023-04-09T01:39:22;101087.30;;;20.27;30.86
37710;BME280;60223;34.854;-92.408;2023-04-09T01:41:47;101085.81;;;21.86;29.19
37710;BME280;60223;34.854;-92.408;2023-04-09T01:44:13;101088.65;;;19.85;31.34
37710;BME280;60223;34.854;-92.408;2023-04-09T01:46:40;101093.06;;;20.20;31.14
37710;BME280;60223;34.854;-92.408;2023-04-09T01:49:05;101093.34;;;20.20;31.13
37710;BME280;60223;34.854;-92.408;2023-04-09T01:51:31;101098.12;;;20.56;31.03
37710;BME280;60223;34.854;-92.408;2023-04-09T01:53:56;101101.32;;;20.25;31.63
37710;BME280;60223;34.854;-92.408;2023-04-09T01:56:22;101106.23;;;20.63;31.49
37710;BME280;60223;34.854;-92.408;2023-04-09T01:58:48;101110.43;;;20.19;31.98
37710;BME280;60223;34.854;-92.408;2023-04-09T02:01:19;101109.63;;;20.54;31.74
37710;BME280;60223;34.854;-92.408;2023-04-09T02:03:43;101113.31;;;19.80;32.48
37710;BME280;60223;34.854;-92.408;2023-04-09T02:06:11;101116.68;;;19.66;32.80
37710;BME280;60223;34.854;-92.408;2023-04-09T02:08:31;101119.70;;;21.72;31.18
37710;BME280;60223;34.854;-92.408;2023-04-09T02:10:57;101120.30;;;22.19;30.29
37710;BME280;60223;34.854;-92.408;2023-04-09T02:13:23;101121.32;;;21.79;30.72
37710;BME280;60223;34.854;-92.408;2023-04-09T02:17:09;101119.40;;;21.98;30.69
37710;BME280;60223;34.854;-92.408;2023-04-09T02:19:42;101127.15;;;23.29;29.35
37710;BME280;60223;34.854;-92.408;2023-04-09T02:22:26;101131.23;;;23.01;29.10
37710;BME280;60223;34.854;-92.408;2023-04-09T02:24:29;101135.21;;;24.06;27.50
37710;BME280;60223;34.854;-92.408;2023-04-09T02:26:55;101141.48;;;23.53;27.58
37710;BME280;60223;34.854;-92.408;2023-04-09T02:29:21;101148.08;;;24.86;26.15
37710;BME280;60223;34.854;-92.408;2023-04-09T02:31:46;101150.18;;;24.90;26.11
37710;BME280;60223;34.854;-92.408;2023-04-09T02:34:11;101155.90;;;24.80;25.59
37710;BME280;60223;34.854;-92.408;2023-04-09T02:36:38;101162.51;;;24.49;25.46
37710;BME280;60223;34.854;-92.408;2023-04-09T02:39:03;101165.19;;;24.21;25.42
37710;BME280;60223;34.854;-92.408;2023-04-09T02:41:29;101169.46;;;24.63;25.20
37710;BME280;60223;34.854;-92.408;2023-04-09T02:43:55;101175.07;;;24.65;25.08
37710;BME280;60223;34.854;-92.408;2023-04-09T02:46:19;101178.11;;;24.83;24.84
37710;BME280;60223;34.854;-92.408;2023-04-09T02:48:46;101184.25;;;24.69;24.73
37710;BME280;60223;34.854;-92.408;2023-04-09T02:51:12;101187.61;;;24.82;24.61
37710;BME280;60223;34.854;-92.408;2023-04-09T02:53:37;101190.77;;;24.89;24.56
37710;BME280;60223;34.854;-92.408;2023-04-09T02:56:02;101190.09;;;25.01;24.46
37710;BME280;60223;34.854;-92.408;2023-04-09T02:58:29;101192.77;;;25.26;24.28
37710;BME280;60223;34.854;-92.408;2023-04-09T03:00:54;101194.26;;;24.82;24.39
37710;BME280;60223;34.854;-92.408;2023-04-09T03:03:20;101196.38;;;25.14;24.31
37710;BME280;60223;34.854;-92.408;2023-04-09T03:05:46;101199.35;;;25.18;24.22
37710;BME280;60223;34.854;-92.408;2023-04-09T03:08:10;101203.63;;;24.80;24.20
37710;BME280;60223;34.854;-92.408;2023-04-09T03:10:37;101206.27;;;25.07;24.37
37710;BME280;60223;34.854;-92.408;2023-04-09T03:13:03;101207.83;;;25.16;24.29
37710;BME280;60223;34.854;-92.408;2023-04-09T03:15:28;101209.86;;;25.05;24.04
37710;BME280;60223;34.854;-92.408;2023-04-09T03:17:53;101211.92;;;25.04;24.03
37710;BME280;60223;34.854;-92.408;2023-04-09T03:20:20;101213.44;;;25.27;24.02
37710;BME280;60223;34.854;-92.408;2023-04-09T03:22:45;101217.05;;;24.97;24.43
37710;BME280;60223;34.854;-92.408;2023-04-09T03:25:11;101219.64;;;25.11;24.11
37710;BME280;60223;34.854;-92.408;2023-04-09T03:27:35;101224.44;;;24.74;24.58
37710;BME280;60223;34.854;-92.408;2023-04-09T03:30:02;101226.38;;;25.01;24.23
37710;BME280;60223;34.854;-92.408;2023-04-09T03:32:28;101226.66;;;24.80;24.54
37710;BME280;60223;34.854;-92.408;2023-04-09T03:34:54;101228.19;;;25.28;24.14
37710;BME280;60223;34.854;-92.408;2023-04-09T03:37:17;101227.36;;;24.98;24.36
37710;BME280;60223;34.854;-92.408;2023-04-09T03:39:45;101232.18;;;25.10;24.32
37710;BME280;60223;34.854;-92.408;2023-04-09T03:42:10;101232.67;;;25.16;24.33
37710;BME280;60223;34.854;-92.408;2023-04-09T03:44:36;101235.16;;;25.12;24.53
37710;BME280;60223;34.854;-92.408;2023-04-09T03:47:02;101235.22;;;24.92;24.46
37710;BME280;60223;34.854;-92.408;2023-04-09T03:49:26;101238.85;;;24.86;24.65
37710;BME280;60223;34.854;-92.408;2023-04-09T03:51:54;101238.16;;;24.72;24.58
37710;BME280;60223;34.854;-92.408;2023-04-09T03:54:19;101232.24;;;25.84;23.81
37710;BME280;60223;34.854;-92.408;2023-04-09T04:08:53;101247.34;;;24.85;24.92
37710;BME280;60223;34.854;-92.408;2023-04-09T04:11:16;101250.94;;;24.86;24.87
37710;BME280;60223;34.854;-92.408;2023-04-09T04:13:43;101251.49;;;25.23;24.65
37710;BME280;60223;34.854;-92.408;2023-04-09T04:16:09;101250.03;;;24.95;25.08
37710;BME280;60223;34.854;-92.408;2023-04-09T04:18:36;101252.39;;;25.15;24.74
37710;BME280;60223;34.854;-92.408;2023-04-09T04:21:01;101243.37;;;25.50;24.30
37710;BME280;60223;34.854;-92.408;2023-04-09T04:23:30;101247.78;;;25.63;24.27
37710;BME280;60223;34.854;-92.408;2023-04-09T04:25:53;101247.61;;;25.68;24.41
37710;BME280;60223;34.854;-92.408;2023-04-09T04:28:16;101251.23;;;25.05;25.07
37710;BME280;60223;34.854;-92.408;2023-04-09T04:30:44;101249.89;;;24.89;25.11
37710;BME280;60223;34.854;-92.408;2023-04-09T04:33:09;101251.14;;;25.10;25.03
37710;BME280;60223;34.854;-92.408;2023-04-09T04:35:35;101252.11;;;24.65;25.35
37710;BME280;60223;34.854;-92.408;2023-04-09T04:38:01;101258.54;;;24.33;25.60
37710;BME280;60223;34.854;-92.408;2023-04-09T04:40:27;101257.38;;;24.97;25.38
37710;BME280;60223;34.854;-92.408;2023-04-09T04:42:51;101254.81;;;25.26;24.87
37710;BME280;60223;34.854;-92.408;2023-04-09T04:45:17;101255.02;;;25.32;24.95
37710;BME280;60223;34.854;-92.408;2023-04-09T04:47:43;101254.05;;;24.97;24.77
37710;BME280;60223;34.854;-92.408;2023-04-09T04:50:08;101252.74;;;25.54;24.42
37710;BME280;60223;34.854;-92.408;2023-04-09T04:52:35;101256.26;;;25.41;24.50
37710;BME280;60223;34.854;-92.408;2023-04-09T04:54:58;101259.01;;;25.26;24.65
37710;BME280;60223;34.854;-92.408;2023-04-09T04:57:26;101258.83;;;25.23;24.60
37710;BME280;60223;34.854;-92.408;2023-04-09T04:59:52;101256.25;;;24.84;24.68
37710;BME280;60223;34.854;-92.408;2023-04-09T05:02:17;101255.44;;;25.33;24.70
37710;BME280;60223;34.854;-92.408;2023-04-09T05:04:43;101255.94;;;24.86;24.69
37710;BME280;60223;34.854;-92.408;2023-04-09T05:07:09;101256.40;;;25.06;24.74
37710;BME280;60223;34.854;-92.408;2023-04-09T05:09:33;101258.01;;;25.49;24.54
37710;BME280;60223;34.854;-92.408;2023-04-09T05:11:59;101260.90;;;25.27;24.71
37710;BME280;60223;34.854;-92.408;2023-04-09T05:14:26;101264.21;;;24.99;24.71
37710;BME280;60223;34.854;-92.408;2023-04-09T05:16:52;101265.43;;;24.92;24.75
37710;BME280;60223;34.854;-92.408;2023-04-09T05:19:17;101263.87;;;25.31;24.63
37710;BME280;60223;34.854;-92.408;2023-04-09T05:21:43;101261.75;;;25.12;24.75
37710;BME280;60223;34.854;-92.408;2023-04-09T05:24:09;101261.17;;;25.14;24.74
37710;BME280;60223;34.854;-92.408;2023-04-09T05:26:34;101264.05;;;24.99;24.86
37710;BME280;60223;34.854;-92.408;2023-04-09T05:29:00;101265.34;;;25.14;24.68
37710;BME280;60223;34.854;-92.408;2023-04-09T05:31:24;101267.85;;;25.06;24.75
37710;BME280;60223;34.854;-92.408;2023-04-09T05:33:51;101267.04;;;25.15;24.69
37710;BME280;60223;34.854;-92.408;2023-04-09T05:36:18;101268.70;;;24.85;24.70
37710;BME280;60223;34.854;-92.408;2023-04-09T05:38:42;101270.41;;;25.21;24.57
37710;BME280;60223;34.854;-92.408;2023-04-09T05:41:08;101273.20;;;24.73;24.75
37710;BME280;60223;34.854;-92.408;2023-04-09T05:43:34;101276.94;;;24.74;24.74
37710;BME280;60223;34.854;-92.408;2023-04-09T05:45:58;101279.22;;;24.96;24.73
37710;BME280;60223;34.854;-92.408;2023-04-09T05:48:25;101278.78;;;25.05;24.63
37710;BME280;60223;34.854;-92.408;2023-04-09T05:50:51;101276.67;;;25.01;24.66
37710;BME280;60223;34.854;-92.408;2023-04-09T05:53:16;101276.17;;;24.62;24.73
37710;BME280;60223;34.854;-92.408;2023-04-09T05:55:42;101273.54;;;24.89;24.70
37710;BME280;60223;34.854;-92.408;2023-04-09T05:58:07;101279.05;;;24.68;24.66
37710;BME280;60223;34.854;-92.408;2023-04-09T06:00:33;101279.70;;;24.74;24.62
37710;BME280;60223;34.854;-92.408;2023-04-09T06:02:59;101280.10;;;24.69;24.73
37710;BME280;60223;34.854;-92.408;2023-04-09T06:05:25;101283.56;;;25.01;24.66
37710;BME280;60223;34.854;-92.408;2023-04-09T06:07:50;101286.59;;;24.83;24.78
37710;BME280;60223;34.854;-92.408;2023-04-09T06:10:16;101285.96;;;24.80;24.76
37710;BME280;60223;34.854;-92.408;2023-04-09T06:12:42;101284.86;;;24.87;24.68
37710;BME280;60223;34.854;-92.408;2023-04-09T06:15:08;101288.20;;;24.76;24.76
37710;BME280;60223;34.854;-92.408;2023-04-09T06:17:33;101290.54;;;24.56;24.68
37710;BME280;60223;34.854;-92.408;2023-04-09T06:19:59;101292.84;;;24.79;24.67
37710;BME280;60223;34.854;-92.408;2023-04-09T06:22:25;101293.09;;;24.78;24.65
37710;BME280;60223;34.854;-92.408;2023-04-09T06:24:48;101292.80;;;24.68;24.72
37710;BME280;60223;34.854;-92.408;2023-04-09T06:27:16;101294.44;;;24.46;24.70
37710;BME280;60223;34.854;-92.408;2023-04-09T06:29:41;101289.84;;;24.40;25.00
37710;BME280;60223;34.854;-92.408;2023-04-09T06:32:08;101292.26;;;24.71;24.71
37710;BME280;60223;34.854;-92.408;2023-04-09T06:34:33;101290.80;;;24.43;24.71
37710;BME280;60223;34.854;-92.408;2023-04-09T06:36:58;101289.36;;;24.68;24.69
37710;BME280;60223;34.854;-92.408;2023-04-09T06:39:25;101291.61;;;24.80;24.59
37710;BME280;60223;34.854;-92.408;2023-04-09T06:41:49;101292.11;;;24.80;24.55
37710;BME280;60223;34.854;-92.408;2023-04-09T06:44:15;101292.17;;;24.39;24.68
37710;BME280;60223;34.854;-92.408;2023-04-09T06:46:41;101291.50;;;24.57;24.71
37710;BME280;60223;34.854;-92.408;2023-04-09T06:49:05;101291.95;;;24.62;24.69
37710;BME280;60223;34.854;-92.408;2023-04-09T06:51:32;101288.00;;;24.21;24.99
37710;BME280;60223;34.854;-92.408;2023-04-09T06:53:58;101291.46;;;24.34;24.64
37710;BME280;60223;34.854;-92.408;2023-04-09T06:56:24;101287.69;;;24.47;24.74
37710;BME280;60223;34.854;-92.408;2023-04-09T06:58:49;101287.03;;;24.44;24.78
37710;BME280;60223;34.854;-92.408;2023-04-09T07:01:15;101286.80;;;24.51;24.72
37710;BME280;60223;34.854;-92.408;2023-04-09T07:03:41;101285.83;;;24.38;25.03
37710;BME280;60223;34.854;-92.408;2023-04-09T07:06:05;101286.91;;;24.29;24.87
37710;BME280;60223;34.854;-92.408;2023-04-09T07:08:32;101287.35;;;24.10;25.02
37710;BME280;60223;34.854;-92.408;2023-04-09T07:10:58;101288.09;;;24.39;24.75
37710;BME280;60223;34.854;-92.408;2023-04-09T07:13:23;101288.04;;;24.34;24.80
37710;BME280;60223;34.854;-92.408;2023-04-09T07:15:49;101285.39;;;23.96;24.91
37710;BME280;60223;34.854;-92.408;2023-04-09T07:18:14;101284.69;;;24.24;24.90
37710;BME280;60223;34.854;-92.408;2023-04-09T07:20:39;101285.25;;;24.49;24.63
37710;BME280;60223;34.854;-92.408;2023-04-09T07:23:06;101283.90;;;24.26;24.84
37710;BME280;60223;34.854;-92.408;2023-04-09T07:25:29;101285.54;;;24.34;24.77
37710;BME280;60223;34.854;-92.408;2023-04-09T07:27:57;101288.67;;;23.73;25.07
37710;BME280;60223;34.854;-92.408;2023-04-09T07:30:23;101288.56;;;24.13;24.93
37710;BME280;60223;34.854;-92.408;2023-04-09T07:32:48;101288.36;;;24.53;25.00
37710;BME280;60223;34.854;-92.408;2023-04-09T07:35:14;101290.57;;;23.99;25.05
37710;BME280;60223;34.854;-92.408;2023-04-09T07:37:40;101294.71;;;24.26;24.77
37710;BME280;60223;34.854;-92.408;2023-04-09T07:40:06;101297.06;;;24.23;24.79
37710;BME280;60223;34.854;-92.408;2023-04-09T07:42:29;101296.13;;;24.02;24.95
37710;BME280;60223;34.854;-92.408;2023-04-09T07:44:57;101294.02;;;23.93;25.03
37710;BME280;60223;34.854;-92.408;2023-04-09T07:47:23;101291.46;;;24.57;24.87
37710;BME280;60223;34.854;-92.408;2023-04-09T07:49:49;101296.11;;;24.07;24.86
37710;BME280;60223;34.854;-92.408;2023-04-09T07:52:14;101299.13;;;24.01;24.89
37710;BME280;60223;34.854;-92.408;2023-04-09T07:54:39;101300.29;;;24.05;24.84
37710;BME280;60223;34.854;-92.408;2023-04-09T07:57:05;101306.28;;;24.20;24.72
37710;BME280;60223;34.854;-92.408;2023-04-09T07:59:32;101307.98;;;24.58;24.80
37710;BME280;60223;34.854;-92.408;2023-04-09T08:01:55;101308.27;;;24.20;24.70
37710;BME280;60223;34.854;-92.408;2023-04-09T08:04:22;101305.01;;;24.31;25.01
37710;BME280;60223;34.854;-92.408;2023-04-09T08:06:48;101305.72;;;23.72;25.11
37710;BME280;60223;34.854;-92.408;2023-04-09T08:09:14;101304.85;;;24.02;24.85
37710;BME280;60223;34.854;-92.408;2023-04-09T08:11:39;101304.38;;;24.07;25.02
37710;BME280;60223;34.854;-92.408;2023-04-09T08:14:05;101305.02;;;23.96;24.91
37710;BME280;60223;34.854;-92.408;2023-04-09T08:16:29;101304.78;;;24.05;24.82
37710;BME280;60223;34.854;-92.408;2023-04-09T08:18:57;101303.82;;;24.02;24.83
37710;BME280;60223;34.854;-92.408;2023-04-09T08:21:22;101303.76;;;24.18;24.89
37710;BME280;60223;34.854;-92.408;2023-04-09T08:23:48;101304.15;;;23.98;25.05
37710;BME280;60223;34.854;-92.408;2023-04-09T08:26:13;101300.10;;;23.77;25.02
37710;BME280;60223;34.854;-92.408;2023-04-09T08:28:39;101300.57;;;24.07;24.96
37710;BME280;60223;34.854;-92.408;2023-04-09T08:31:04;101299.57;;;24.19;24.63
37710;BME280;60223;34.854;-92.408;2023-04-09T08:33:31;101299.79;;;24.28;24.94
37710;BME280;60223;34.854;-92.408;2023-04-09T08:35:56;101299.02;;;24.31;24.89
37710;BME280;60223;34.854;-92.408;2023-04-09T08:38:22;101305.03;;;23.98;24.74
37710;BME280;60223;34.854;-92.408;2023-04-09T08:40:48;101303.98;;;23.94;25.00
37710;BME280;60223;34.854;-92.408;2023-04-09T08:43:17;101302.24;;;23.56;25.08
37710;BME280;60223;34.854;-92.408;2023-04-09T08:45:40;101301.28;;;23.71;24.94
37710;BME280;60223;34.854;-92.408;2023-04-09T08:48:06;101302.13;;;23.63;25.00
37710;BME280;60223;34.854;-92.408;2023-04-09T08:50:30;101304.53;;;23.82;24.81
37710;BME280;60223;34.854;-92.408;2023-04-09T08:52:54;101307.40;;;23.81;24.80
37710;BME280;60223;34.854;-92.408;2023-04-09T08:55:22;101311.49;;;23.77;24.85
37710;BME280;60223;34.854;-92.408;2023-04-09T08:57:47;101308.64;;;24.20;24.88
37710;BME280;60223;34.854;-92.408;2023-04-09T09:00:14;101306.21;;;23.51;25.01
37710;BME280;60223;34.854;-92.408;2023-04-09T09:02:38;101306.36;;;23.87;24.70
37710;BME280;60223;34.854;-92.408;2023-04-09T09:05:03;101307.49;;;23.97;24.82
37710;BME280;60223;34.854;-92.408;2023-04-09T09:07:29;101309.71;;;23.94;24.86
37710;BME280;60223;34.854;-92.408;2023-04-09T09:09:58;101310.84;;;23.82;24.98
37710;BME280;60223;34.854;-92.408;2023-04-09T09:12:33;101309.39;;;24.02;25.02
37710;BME280;60223;34.854;-92.408;2023-04-09T09:14:47;101311.20;;;23.70;25.06
37710;BME280;60223;34.854;-92.408;2023-04-09T09:17:13;101314.06;;;23.96;25.03
37710;BME280;60223;34.854;-92.408;2023-04-09T09:19:39;101321.22;;;24.02;24.98
37710;BME280;60223;34.854;-92.408;2023-04-09T09:22:04;101326.65;;;23.59;24.94
37710;BME280;60223;34.854;-92.408;2023-04-09T09:24:29;101328.52;;;24.03;24.99
37710;BME280;60223;34.854;-92.408;2023-04-09T09:26:57;101331.36;;;23.74;24.79
37710;BME280;60223;34.854;-92.408;2023-04-09T09:29:21;101334.49;;;23.59;24.88
37710;BME280;60223;34.854;-92.408;2023-04-09T09:31:49;101334.01;;;23.42;25.01
37710;BME280;60223;34.854;-92.408;2023-04-09T09:34:13;101340.47;;;23.72;24.77
37710;BME280;60223;34.854;-92.408;2023-04-09T09:36:38;101342.99;;;23.84;24.82
37710;BME280;60223;34.854;-92.408;2023-04-09T09:39:04;101341.71;;;23.93;24.94
37710;BME280;60223;34.854;-92.408;2023-04-09T09:41:30;101343.53;;;23.82;24.79
37710;BME280;60223;34.854;-92.408;2023-04-09T09:43:56;101342.11;;;24.14;24.72
37710;BME280;60223;34.854;-92.408;2023-04-09T09:46:22;101343.80;;;23.87;24.75
37710;BME280;60223;34.854;-92.408;2023-04-09T09:48:47;101344.49;;;24.10;24.78
37710;BME280;60223;34.854;-92.408;2023-04-09T09:51:14;101343.49;;;23.65;24.92
37710;BME280;60223;34.854;-92.408;2023-04-09T09:53:39;101347.48;;;23.52;24.81
37710;BME280;60223;34.854;-92.408;2023-04-09T09:56:05;101347.23;;;23.50;24.83
37710;BME280;60223;34.854;-92.408;2023-04-09T09:58:31;101349.99;;;23.82;24.73
37710;BME280;60223;34.854;-92.408;2023-04-09T10:00:56;101348.88;;;23.86;24.90
37710;BME280;60223;34.854;-92.408;2023-04-09T10:03:24;101348.24;;;23.34;24.97
37710;BME280;60223;34.854;-92.408;2023-04-09T10:05:47;101351.38;;;23.86;24.91
37710;BME280;60223;34.854;-92.408;2023-04-09T10:08:12;101352.96;;;23.51;24.81
37710;BME280;60223;34.854;-92.408;2023-04-09T10:10:39;101355.41;;;23.51;24.80
37710;BME280;60223;34.854;-92.408;2023-04-09T10:13:04;101356.20;;;23.55;24.76
37710;BME280;60223;34.854;-92.408;2023-04-09T10:15:34;101357.55;;;23.94;24.85
37710;BME280;60223;34.854;-92.408;2023-04-09T10:17:57;101357.39;;;23.91;24.63
37710;BME280;60223;34.854;-92.408;2023-04-09T10:20:26;101358.18;;;23.52;24.77
37710;BME280;60223;34.854;-92.408;2023-04-09T10:22:48;101360.72;;;24.12;24.67
37710;BME280;60223;34.854;-92.408;2023-04-09T10:25:12;101361.13;;;23.80;24.66
37710;BME280;60223;34.854;-92.408;2023-04-09T10:27:39;101365.95;;;24.24;24.51
37710;BME280;60223;34.854;-92.408;2023-04-09T10:30:05;101369.51;;;24.20;24.52
37710;BME280;60223;34.854;-92.408;2023-04-09T10:32:33;101376.29;;;24.00;24.67
37710;BME280;60223;34.854;-92.408;2023-04-09T10:34:58;101382.45;;;23.67;24.73
37710;BME280;60223;34.854;-92.408;2023-04-09T10:37:24;101382.04;;;23.74;24.63
37710;BME280;60223;34.854;-92.408;2023-04-09T10:39:48;101382.42;;;23.93;24.71
37710;BME280;60223;34.854;-92.408;2023-04-09T10:42:17;101383.10;;;23.68;24.91
37710;BME280;60223;34.854;-92.408;2023-04-09T10:44:38;101379.75;;;23.90;24.76
37710;BME280;60223;34.854;-92.408;2023-04-09T10:47:02;101377.58;;;23.87;24.69
37710;BME280;60223;34.854;-92.408;2023-04-09T10:49:34;101376.94;;;23.70;24.85
37710;BME280;60223;34.854;-92.408;2023-04-09T10:52:00;101377.06;;;23.81;24.77
37710;BME280;60223;34.854;-92.408;2023-04-09T10:54:38;101379.69;;;23.78;24.78
37710;BME280;60223;34.854;-92.408;2023-04-09T10:59:12;101389.08;;;23.81;24.56
37710;BME280;60223;34.854;-92.408;2023-04-09T11:01:38;101388.47;;;23.58;24.74
37710;BME280;60223;34.854;-92.408;2023-04-09T11:04:15;101388.66;;;23.69;24.64
37710;BME280;60223;34.854;-92.408;2023-04-09T11:06:29;101389.43;;;24.00;24.59
37710;BME280;60223;34.854;-92.408;2023-04-09T11:08:55;101392.26;;;24.00;24.57
37710;BME280;60223;34.854;-92.408;2023-04-09T11:11:24;101393.34;;;23.89;24.68
37710;BME280;60223;34.854;-92.408;2023-04-09T11:13:46;101394.84;;;23.74;24.76
37710;BME280;60223;34.854;-92.408;2023-04-09T11:16:10;101396.69;;;24.00;24.57
37710;BME280;60223;34.854;-92.408;2023-04-09T11:18:38;101397.88;;;23.70;24.56
37710;BME280;60223;34.854;-92.408;2023-04-09T11:21:03;101399.14;;;23.91;24.58
37710;BME280;60223;34.854;-92.408;2023-04-09T11:23:30;101406.36;;;24.24;24.27
37710;BME280;60223;34.854;-92.408;2023-04-09T11:25:55;101410.99;;;23.38;24.74
37710;BME280;60223;34.854;-92.408;2023-04-09T11:28:19;101414.56;;;23.83;24.59
37710;BME280;60223;34.854;-92.408;2023-04-09T11:30:46;101419.06;;;24.06;24.41
37710;BME280;60223;34.854;-92.408;2023-04-09T11:33:12;101418.11;;;23.97;24.44
37710;BME280;60223;34.854;-92.408;2023-04-09T11:35:38;101423.01;;;23.82;24.61
37710;BME280;60223;34.854;-92.408;2023-04-09T11:38:07;101428.81;;;23.68;24.70
37710;BME280;60223;34.854;-92.408;2023-04-09T11:40:28;101434.17;;;23.43;24.71
37710;BME280;60223;34.854;-92.408;2023-04-09T11:42:56;101438.74;;;24.04;24.43
37710;BME280;60223;34.854;-92.408;2023-04-09T11:45:22;101440.73;;;23.63;24.55
37710;BME280;60223;34.854;-92.408;2023-04-09T11:47:45;101447.47;;;23.82;24.55
37710;BME280;60223;34.854;-92.408;2023-04-09T11:50:13;101452.35;;;23.90;24.51
37710;BME280;60223;34.854;-92.408;2023-04-09T11:52:38;101456.24;;;23.75;24.43
37710;BME280;60223;34.854;-92.408;2023-04-09T11:55:03;101458.40;;;23.90;24.55
37710;BME280;60223;34.854;-92.408;2023-04-09T11:57:36;101467.56;;;23.15;24.77
37710;BME280;60223;34.854;-92.408;2023-04-09T11:59:55;101466.52;;;25.38;23.91
37710;BME280;60223;34.854;-92.408;2023-04-09T12:02:20;101469.23;;;25.59;24.15
37710;BME280;60223;34.854;-92.408;2023-04-09T12:04:50;101471.46;;;25.91;24.27
37710;BME280;60223;34.854;-92.408;2023-04-09T12:07:11;101473.39;;;25.37;24.89
37710;BME280;60223;34.854;-92.408;2023-04-09T12:09:46;101476.27;;;26.20;24.53
37710;BME280;60223;34.854;-92.408;2023-04-09T12:12:06;101475.18;;;25.62;24.85
37710;BME280;60223;34.854;-92.408;2023-04-09T12:14:30;101474.09;;;25.64;24.96
37710;BME280;60223;34.854;-92.408;2023-04-09T12:16:55;101475.44;;;25.57;25.16
37710;BME280;60223;34.854;-92.408;2023-04-09T12:19:23;101476.44;;;25.31;25.68
37710;BME280;60223;34.854;-92.408;2023-04-09T12:21:50;101477.28;;;25.65;25.38
37710;BME280;60223;34.854;-92.408;2023-04-09T12:24:12;101481.52;;;26.04;25.36
37710;BME280;60223;34.854;-92.408;2023-04-09T12:26:37;101484.55;;;26.56;25.22
37710;BME280;60223;34.854;-92.408;2023-04-09T12:29:02;101487.07;;;26.55;25.15
37710;BME280;60223;34.854;-92.408;2023-04-09T12:31:26;101487.20;;;26.38;25.23
37710;BME280;60223;34.854;-92.408;2023-04-09T12:33:55;101491.11;;;26.56;25.28
37710;BME280;60223;34.854;-92.408;2023-04-09T12:36:20;101493.55;;;26.40;25.73
37710;BME280;60223;34.854;-92.408;2023-04-09T12:38:45;101496.82;;;25.56;26.08